sensor_id;sensor_type;location;lat;lon;timestamp;pressure;altitude;pressure_sealevel;temperature;humidity
64025;BME280;50266;57.446;26.936;2022-07-23T00:00:33;99409.86;;;18.51;83.89
64025;BME280;50266;57.446;26.936;2022-07-23T00:01:34;99409.18;;;18.5;84.05
64025;BME280;50266;57.446;26.936;2022-07-23T00:02:34;99411.22;;;18.49;84.19
64025;BME280;50266;57.446;26.936;2022-07-23T00:03:34;99414.27;;;18.42;84.58
64025;BME280;50266;57.446;26.936;2022-07-23T00:04:34;99410.69;;;18.47;84.32
64025;BME280;50266;57.446;26.936;2022-07-23T00:05:34;99413.14;;;18.4;84.46
64025;BME280;50266;57.446;26.936;2022-07-23T00:06:34;99409.16;;;18.45;84.39
64025;BME280;50266;57.446;26.936;2022-07-23T00:07:34;99413.86;;;18.44;84.31
64025;BME280;50266;57.446;26.936;2022-07-23T00:08:34;99413.16;;;18.34;84.63
64025;BME280;50266;57.446;26.936;2022-07-23T00:09:34;99406.05;;;18.27;84.91
64025;BME280;50266;57.446;26.936;2022-07-23T00:10:34;99410.19;;;18.2;85.45
64025;BME280;50266;57.446;26.936;2022-07-23T00:11:34;99410.09;;;18.29;85.34
64025;BME280;50266;57.446;26.936;2022-07-23T00:12:34;99408.09;;;18.32;85.16
64025;BME280;50266;57.446;26.936;2022-07-23T00:13:34;99407.36;;;18.41;84.75
64025;BME280;50266;57.446;26.936;2022-07-23T00:14:34;99405.59;;;18.34;84.95
64025;BME280;50266;57.446;26.936;2022-07-23T00:15:34;99407.34;;;18.22;84.88
64025;BME280;50266;57.446;26.936;2022-07-23T00:16:34;99402.38;;;18.21;85.22
64025;BME280;50266;57.446;26.936;2022-07-23T00:17:34;99400.91;;;18.26;85.37
64025;BME280;50266;57.446;26.936;2022-07-23T00:18:34;99399.78;;;18.23;85.48
64025;BME280;50266;57.446;26.936;2022-07-23T00:19:34;99397.07;;;18.2;85.7
64025;BME280;50266;57.446;26.936;2022-07-23T00:20:34;99396.75;;;18.22;85.79
64025;BME280;50266;57.446;26.936;2022-07-23T00:21:34;99398.64;;;18.18;85.97
64025;BME280;50266;57.446;26.936;2022-07-23T00:22:34;99394.8;;;18.2;85.75
64025;BME280;50266;57.446;26.936;2022-07-23T00:23:34;99394.28;;;18.27;85.38
64025;BME280;50266;57.446;26.936;2022-07-23T00:24:35;99393.11;;;18.37;85.04
64025;BME280;50266;57.446;26.936;2022-07-23T00:25:34;99391.56;;;18.24;85.24
64025;BME280;50266;57.446;26.936;2022-07-23T00:26:35;99391.72;;;18.15;86.0
64025;BME280;50266;57.446;26.936;2022-07-23T00:27:35;99390.09;;;18.13;86.08
64025;BME280;50266;57.446;26.936;2022-07-23T00:28:35;99389.01;;;18.14;86.04
64025;BME280;50266;57.446;26.936;2022-07-23T00:29:35;99384.91;;;18.09;86.41
64025;BME280;50266;57.446;26.936;2022-07-23T00:30:35;99380.59;;;18.21;86.22
64025;BME280;50266;57.446;26.936;2022-07-23T00:31:35;99380.31;;;18.18;86.06
64025;BME280;50266;57.446;26.936;2022-07-23T00:32:53;99377.95;;;18.17;85.98
64025;BME280;50266;57.446;26.936;2022-07-23T00:33:36;99377.05;;;18.11;86.12
64025;BME280;50266;57.446;26.936;2022-07-23T00:34:36;99373.74;;;18.17;86.06
64025;BME280;50266;57.446;26.936;2022-07-23T00:35:37;99368.45;;;18.17;85.91
64025;BME280;50266;57.446;26.936;2022-07-23T00:36:36;99370.22;;;18.18;85.86
64025;BME280;50266;57.446;26.936;2022-07-23T00:37:36;99370.52;;;18.21;85.18
64025;BME280;50266;57.446;26.936;2022-07-23T00:38:37;99368.52;;;18.16;85.63
64025;BME280;50266;57.446;26.936;2022-07-23T00:39:37;99366.29;;;18.27;85.6
64025;BME280;50266;57.446;26.936;2022-07-23T00:40:37;99364.89;;;18.22;85.48
64025;BME280;50266;57.446;26.936;2022-07-23T00:41:37;99365.9;;;18.14;85.69
64025;BME280;50266;57.446;26.936;2022-07-23T00:42:37;99364.25;;;18.1;85.41
64025;BME280;50266;57.446;26.936;2022-07-23T00:43:37;99363.7;;;18.13;85.63
64025;BME280;50266;57.446;26.936;2022-07-23T00:44:37;99359.23;;;18.12;85.3
64025;BME280;50266;57.446;26.936;2022-07-23T00:45:39;99361.15;;;18.18;85.2
64025;BME280;50266;57.446;26.936;2022-07-23T00:46:44;99354.93;;;18.18;85.12
64025;BME280;50266;57.446;26.936;2022-07-23T00:47:40;99360.0;;;18.32;84.75
64025;BME280;50266;57.446;26.936;2022-07-23T00:48:40;99355.2;;;18.31;84.58
64025;BME280;50266;57.446;26.936;2022-07-23T00:49:40;99354.98;;;18.15;85.52
64025;BME280;50266;57.446;26.936;2022-07-23T00:50:40;99357.2;;;18.1;85.93
64025;BME280;50266;57.446;26.936;2022-07-23T00:51:41;99357.12;;;18.12;85.85
64025;BME280;50266;57.446;26.936;2022-07-23T00:52:41;99354.35;;;18.12;85.73
64025;BME280;50266;57.446;26.936;2022-07-23T00:53:41;99358.57;;;18.2;85.63
64025;BME280;50266;57.446;26.936;2022-07-23T00:54:41;99360.48;;;18.26;85.31
64025;BME280;50266;57.446;26.936;2022-07-23T00:55:41;99356.31;;;18.13;85.89
64025;BME280;50266;57.446;26.936;2022-07-23T00:56:41;99358.61;;;17.91;86.95
64025;BME280;50266;57.446;26.936;2022-07-23T00:57:41;99361.72;;;17.82;87.63
64025;BME280;50266;57.446;26.936;2022-07-23T00:58:41;99357.05;;;18.01;87.15
64025;BME280;50266;57.446;26.936;2022-07-23T00:59:41;99359.28;;;17.92;87.26
64025;BME280;50266;57.446;26.936;2022-07-23T01:00:41;99358.16;;;17.86;87.4
64025;BME280;50266;57.446;26.936;2022-07-23T01:01:41;99354.09;;;17.94;87.32
64025;BME280;50266;57.446;26.936;2022-07-23T01:02:41;99354.3;;;17.96;87.31
64025;BME280;50266;57.446;26.936;2022-07-23T01:03:41;99352.74;;;18.0;86.64
64025;BME280;50266;57.446;26.936;2022-07-23T01:04:41;99350.64;;;18.08;86.49
64025;BME280;50266;57.446;26.936;2022-07-23T01:05:41;99355.03;;;18.01;86.25
64025;BME280;50266;57.446;26.936;2022-07-23T01:06:41;99350.7;;;17.98;86.41
64025;BME280;50266;57.446;26.936;2022-07-23T01:07:41;99350.52;;;18.03;86.53
64025;BME280;50266;57.446;26.936;2022-07-23T01:08:41;99354.81;;;18.05;86.39
64025;BME280;50266;57.446;26.936;2022-07-23T01:09:41;99353.06;;;17.98;86.53
64025;BME280;50266;57.446;26.936;2022-07-23T01:10:41;99351.38;;;17.91;87.02
64025;BME280;50266;57.446;26.936;2022-07-23T01:11:41;99349.34;;;17.97;86.56
64025;BME280;50266;57.446;26.936;2022-07-23T01:12:41;99351.14;;;17.92;86.62
64025;BME280;50266;57.446;26.936;2022-07-23T01:13:42;99345.63;;;17.88;86.83
64025;BME280;50266;57.446;26.936;2022-07-23T01:14:41;99347.78;;;17.92;86.27
64025;BME280;50266;57.446;26.936;2022-07-23T01:15:41;99346.21;;;17.95;86.28
64025;BME280;50266;57.446;26.936;2022-07-23T01:16:41;99349.33;;;17.85;86.88
64025;BME280;50266;57.446;26.936;2022-07-23T01:17:41;99347.49;;;17.79;87.23
64025;BME280;50266;57.446;26.936;2022-07-23T01:18:41;99353.18;;;17.7;87.71
64025;BME280;50266;57.446;26.936;2022-07-23T01:19:41;99350.74;;;17.64;88.27
64025;BME280;50266;57.446;26.936;2022-07-23T01:20:41;99352.89;;;17.74;88.08
64025;BME280;50266;57.446;26.936;2022-07-23T01:21:42;99349.47;;;17.69;88.25
64025;BME280;50266;57.446;26.936;2022-07-23T01:22:41;99346.0;;;17.67;88.32
64025;BME280;50266;57.446;26.936;2022-07-23T01:23:41;99346.64;;;17.72;88.11
64025;BME280;50266;57.446;26.936;2022-07-23T01:24:41;99351.9;;;17.75;87.98
64025;BME280;50266;57.446;26.936;2022-07-23T01:25:48;99350.52;;;17.73;87.71
64025;BME280;50266;57.446;26.936;2022-07-23T01:26:45;99349.22;;;17.83;87.23
64025;BME280;50266;57.446;26.936;2022-07-23T01:27:44;99350.76;;;17.78;87.73
64025;BME280;50266;57.446;26.936;2022-07-23T01:28:44;99345.47;;;17.85;87.46
64025;BME280;50266;57.446;26.936;2022-07-23T01:29:44;99345.06;;;17.87;87.65
64025;BME280;50266;57.446;26.936;2022-07-23T01:30:44;99341.79;;;17.97;87.19
64025;BME280;50266;57.446;26.936;2022-07-23T01:31:44;99339.19;;;17.9;86.79
64025;BME280;50266;57.446;26.936;2022-07-23T01:32:44;99339.91;;;17.85;86.61
64025;BME280;50266;57.446;26.936;2022-07-23T01:33:44;99334.31;;;17.8;86.88
64025;BME280;50266;57.446;26.936;2022-07-23T01:34:44;99333.94;;;17.84;86.76
64025;BME280;50266;57.446;26.936;2022-07-23T01:35:44;99332.06;;;17.92;86.37
64025;BME280;50266;57.446;26.936;2022-07-23T01:36:44;99335.28;;;17.95;86.55
64025;BME280;50266;57.446;26.936;2022-07-23T01:37:44;99337.81;;;17.88;86.64
64025;BME280;50266;57.446;26.936;2022-07-23T01:38:44;99341.3;;;17.82;87.19
64025;BME280;50266;57.446;26.936;2022-07-23T01:39:44;99344.16;;;17.65;88.28
64025;BME280;50266;57.446;26.936;2022-07-23T01:40:44;99344.09;;;17.69;88.71
64025;BME280;50266;57.446;26.936;2022-07-23T01:41:44;99348.05;;;17.71;88.81
64025;BME280;50266;57.446;26.936;2022-07-23T01:42:46;99347.09;;;17.75;89.05
64025;BME280;50266;57.446;26.936;2022-07-23T01:43:46;99346.33;;;17.64;89.18
64025;BME280;50266;57.446;26.936;2022-07-23T01:44:46;99341.83;;;17.56;89.58
64025;BME280;50266;57.446;26.936;2022-07-23T01:45:46;99340.67;;;17.58;89.52
64025;BME280;50266;57.446;26.936;2022-07-23T01:46:46;99344.59;;;17.69;89.1
64025;BME280;50266;57.446;26.936;2022-07-23T01:47:47;99344.11;;;17.78;88.71
64025;BME280;50266;57.446;26.936;2022-07-23T01:48:46;99341.25;;;17.78;88.8
64025;BME280;50266;57.446;26.936;2022-07-23T01:49:47;99339.84;;;17.79;88.91
64025;BME280;50266;57.446;26.936;2022-07-23T01:50:47;99339.47;;;17.83;89.08
64025;BME280;50266;57.446;26.936;2022-07-23T01:51:47;99339.84;;;17.79;88.98
64025;BME280;50266;57.446;26.936;2022-07-23T01:52:47;99341.54;;;17.8;88.71
64025;BME280;50266;57.446;26.936;2022-07-23T01:53:47;99342.52;;;17.88;88.49
64025;BME280;50266;57.446;26.936;2022-07-23T01:54:47;99347.33;;;17.87;88.63
64025;BME280;50266;57.446;26.936;2022-07-23T01:55:47;99346.89;;;17.88;88.86
64025;BME280;50266;57.446;26.936;2022-07-23T01:56:47;99347.73;;;17.85;88.95
64025;BME280;50266;57.446;26.936;2022-07-23T01:57:47;99347.33;;;17.87;88.95
64025;BME280;50266;57.446;26.936;2022-07-23T01:58:48;99346.56;;;17.88;88.77
64025;BME280;50266;57.446;26.936;2022-07-23T01:59:47;99344.82;;;17.91;88.35
64025;BME280;50266;57.446;26.936;2022-07-23T02:00:47;99347.41;;;17.89;88.24
64025;BME280;50266;57.446;26.936;2022-07-23T02:01:47;99344.93;;;17.93;88.34
64025;BME280;50266;57.446;26.936;2022-07-23T02:02:47;99347.84;;;18.05;87.95
64025;BME280;50266;57.446;26.936;2022-07-23T02:03:47;99347.69;;;18.06;87.82
64025;BME280;50266;57.446;26.936;2022-07-23T02:04:47;99349.88;;;18.06;87.92
64025;BME280;50266;57.446;26.936;2022-07-23T02:05:47;99343.81;;;18.45;85.5
64025;BME280;50266;57.446;26.936;2022-07-23T02:06:47;99344.0;;;18.37;85.39
64025;BME280;50266;57.446;26.936;2022-07-23T02:07:47;99344.69;;;18.28;86.06
64025;BME280;50266;57.446;26.936;2022-07-23T02:08:47;99344.67;;;18.18;87.05
64025;BME280;50266;57.446;26.936;2022-07-23T02:09:47;99343.52;;;18.32;86.14
64025;BME280;50266;57.446;26.936;2022-07-23T02:10:47;99343.17;;;18.27;86.17
64025;BME280;50266;57.446;26.936;2022-07-23T02:11:47;99339.09;;;18.23;86.41
64025;BME280;50266;57.446;26.936;2022-07-23T02:12:47;99336.62;;;18.2;86.76
64025;BME280;50266;57.446;26.936;2022-07-23T02:13:47;99338.04;;;18.19;86.59
64025;BME280;50266;57.446;26.936;2022-07-23T02:14:47;99336.34;;;18.18;86.6
64025;BME280;50266;57.446;26.936;2022-07-23T02:15:47;99335.02;;;18.19;86.49
64025;BME280;50266;57.446;26.936;2022-07-23T02:16:47;99329.46;;;18.27;86.07
64025;BME280;50266;57.446;26.936;2022-07-23T02:17:47;99326.54;;;18.32;85.64
64025;BME280;50266;57.446;26.936;2022-07-23T02:18:47;99325.75;;;18.29;85.41
64025;BME280;50266;57.446;26.936;2022-07-23T02:19:47;99331.36;;;18.24;86.24
64025;BME280;50266;57.446;26.936;2022-07-23T02:20:47;99326.91;;;18.36;85.44
64025;BME280;50266;57.446;26.936;2022-07-23T02:21:47;99324.71;;;18.35;85.36
64025;BME280;50266;57.446;26.936;2022-07-23T02:22:47;99321.8;;;18.29;85.66
64025;BME280;50266;57.446;26.936;2022-07-23T02:23:47;99322.22;;;18.25;86.08
64025;BME280;50266;57.446;26.936;2022-07-23T02:24:47;99324.97;;;18.23;86.11
64025;BME280;50266;57.446;26.936;2022-07-23T02:25:47;99319.8;;;18.27;85.87
64025;BME280;50266;57.446;26.936;2022-07-23T02:26:47;99322.92;;;18.54;84.06
64025;BME280;50266;57.446;26.936;2022-07-23T02:27:47;99323.5;;;18.4;84.66
64025;BME280;50266;57.446;26.936;2022-07-23T02:28:47;99327.16;;;18.36;85.17
64025;BME280;50266;57.446;26.936;2022-07-23T02:29:47;99331.58;;;18.4;85.02
64025;BME280;50266;57.446;26.936;2022-07-23T02:30:47;99326.95;;;18.4;84.95
64025;BME280;50266;57.446;26.936;2022-07-23T02:31:47;99327.44;;;18.47;84.34
64025;BME280;50266;57.446;26.936;2022-07-23T02:32:47;99331.45;;;18.45;84.69
64025;BME280;50266;57.446;26.936;2022-07-23T02:33:47;99326.16;;;18.5;84.39
64025;BME280;50266;57.446;26.936;2022-07-23T02:34:47;99329.08;;;18.57;83.93
64025;BME280;50266;57.446;26.936;2022-07-23T02:35:47;99328.47;;;18.54;83.93
64025;BME280;50266;57.446;26.936;2022-07-23T02:36:47;99326.78;;;18.68;83.07
64025;BME280;50266;57.446;26.936;2022-07-23T02:37:47;99327.02;;;18.66;83.02
64025;BME280;50266;57.446;26.936;2022-07-23T02:38:47;99326.55;;;18.62;83.43
64025;BME280;50266;57.446;26.936;2022-07-23T02:39:47;99325.45;;;18.54;83.81
64025;BME280;50266;57.446;26.936;2022-07-23T02:40:47;99325.94;;;18.59;83.65
64025;BME280;50266;57.446;26.936;2022-07-23T02:41:47;99324.52;;;18.59;83.67
64025;BME280;50266;57.446;26.936;2022-07-23T02:42:47;99326.95;;;18.54;84.08
64025;BME280;50266;57.446;26.936;2022-07-23T02:43:47;99325.95;;;18.55;84.21
64025;BME280;50266;57.446;26.936;2022-07-23T02:44:47;99327.19;;;18.72;83.42
64025;BME280;50266;57.446;26.936;2022-07-23T02:45:47;99325.59;;;18.67;83.36
64025;BME280;50266;57.446;26.936;2022-07-23T02:46:47;99324.57;;;18.7;83.29
64025;BME280;50266;57.446;26.936;2022-07-23T02:47:47;99322.75;;;18.69;83.28
64025;BME280;50266;57.446;26.936;2022-07-23T02:48:47;99325.12;;;18.76;82.88
64025;BME280;50266;57.446;26.936;2022-07-23T02:49:47;99321.46;;;18.71;83.26
64025;BME280;50266;57.446;26.936;2022-07-23T02:50:47;99322.14;;;18.68;83.6
64025;BME280;50266;57.446;26.936;2022-07-23T02:51:47;99322.62;;;18.65;83.79
64025;BME280;50266;57.446;26.936;2022-07-23T02:52:48;99321.77;;;18.64;84.06
64025;BME280;50266;57.446;26.936;2022-07-23T02:53:47;99324.52;;;18.6;84.03
64025;BME280;50266;57.446;26.936;2022-07-23T02:54:47;99322.11;;;18.57;84.46
64025;BME280;50266;57.446;26.936;2022-07-23T02:55:48;99322.41;;;18.54;84.86
64025;BME280;50266;57.446;26.936;2022-07-23T02:56:48;99316.43;;;18.49;85.33
64025;BME280;50266;57.446;26.936;2022-07-23T02:57:48;99316.74;;;18.46;85.76
64025;BME280;50266;57.446;26.936;2022-07-23T02:58:48;99316.68;;;18.52;85.54
64025;BME280;50266;57.446;26.936;2022-07-23T02:59:48;99314.29;;;18.58;85.06
64025;BME280;50266;57.446;26.936;2022-07-23T03:00:48;99316.38;;;18.55;85.27
64025;BME280;50266;57.446;26.936;2022-07-23T03:01:48;99316.16;;;18.47;86.09
64025;BME280;50266;57.446;26.936;2022-07-23T03:02:48;99317.31;;;18.45;86.51
64025;BME280;50266;57.446;26.936;2022-07-23T03:03:48;99313.22;;;18.46;86.39
64025;BME280;50266;57.446;26.936;2022-07-23T03:04:48;99313.59;;;18.42;86.85
64025;BME280;50266;57.446;26.936;2022-07-23T03:05:48;99312.95;;;18.5;86.21
64025;BME280;50266;57.446;26.936;2022-07-23T03:06:48;99311.17;;;18.43;86.71
64025;BME280;50266;57.446;26.936;2022-07-23T03:07:48;99311.36;;;18.37;87.37
64025;BME280;50266;57.446;26.936;2022-07-23T03:08:48;99311.02;;;18.46;86.81
64025;BME280;50266;57.446;26.936;2022-07-23T03:09:48;99309.69;;;18.51;86.42
64025;BME280;50266;57.446;26.936;2022-07-23T03:10:48;99305.42;;;18.54;86.6
64025;BME280;50266;57.446;26.936;2022-07-23T03:11:48;99307.02;;;18.54;86.51
64025;BME280;50266;57.446;26.936;2022-07-23T03:12:48;99305.92;;;18.49;86.76
64025;BME280;50266;57.446;26.936;2022-07-23T03:13:48;99308.3;;;18.41;87.71
64025;BME280;50266;57.446;26.936;2022-07-23T03:14:48;99307.69;;;18.39;88.39
64025;BME280;50266;57.446;26.936;2022-07-23T03:15:48;99305.27;;;18.42;88.43
64025;BME280;50266;57.446;26.936;2022-07-23T03:16:48;99305.16;;;18.51;87.79
64025;BME280;50266;57.446;26.936;2022-07-23T03:17:48;99306.2;;;18.55;87.53
64025;BME280;50266;57.446;26.936;2022-07-23T03:18:48;99309.53;;;18.69;86.74
64025;BME280;50266;57.446;26.936;2022-07-23T03:19:48;99303.75;;;18.55;87.55
64025;BME280;50266;57.446;26.936;2022-07-23T03:20:48;99307.55;;;18.62;87.53
64025;BME280;50266;57.446;26.936;2022-07-23T03:21:48;99297.84;;;18.74;86.73
64025;BME280;50266;57.446;26.936;2022-07-23T03:22:48;99294.81;;;18.69;87.02
64025;BME280;50266;57.446;26.936;2022-07-23T03:23:48;99293.26;;;18.64;87.44
64025;BME280;50266;57.446;26.936;2022-07-23T03:24:48;99295.27;;;18.63;87.45
64025;BME280;50266;57.446;26.936;2022-07-23T03:25:48;99296.83;;;18.69;87.14
64025;BME280;50266;57.446;26.936;2022-07-23T03:26:50;99294.29;;;18.83;86.09
64025;BME280;50266;57.446;26.936;2022-07-23T03:27:50;99297.61;;;18.77;86.22
64025;BME280;50266;57.446;26.936;2022-07-23T03:28:50;99296.31;;;18.68;86.97
64025;BME280;50266;57.446;26.936;2022-07-23T03:29:50;99295.56;;;18.73;86.91
64025;BME280;50266;57.446;26.936;2022-07-23T03:30:50;99297.93;;;18.7;86.88
64025;BME280;50266;57.446;26.936;2022-07-23T03:31:50;99297.75;;;18.73;86.89
64025;BME280;50266;57.446;26.936;2022-07-23T03:32:50;99297.73;;;18.81;86.54
64025;BME280;50266;57.446;26.936;2022-07-23T03:33:50;99300.02;;;18.73;87.02
64025;BME280;50266;57.446;26.936;2022-07-23T03:34:50;99296.78;;;18.78;86.75
64025;BME280;50266;57.446;26.936;2022-07-23T03:35:50;99297.51;;;18.75;86.9
64025;BME280;50266;57.446;26.936;2022-07-23T03:36:50;99302.72;;;18.85;86.29
64025;BME280;50266;57.446;26.936;2022-07-23T03:37:50;99299.07;;;18.81;86.68
64025;BME280;50266;57.446;26.936;2022-07-23T03:38:50;99294.83;;;18.87;86.28
64025;BME280;50266;57.446;26.936;2022-07-23T03:39:50;99293.58;;;18.94;85.82
64025;BME280;50266;57.446;26.936;2022-07-23T03:40:50;99292.5;;;18.96;85.48
64025;BME280;50266;57.446;26.936;2022-07-23T03:41:50;99296.53;;;18.91;85.95
64025;BME280;50266;57.446;26.936;2022-07-23T03:42:50;99299.38;;;18.88;86.11
64025;BME280;50266;57.446;26.936;2022-07-23T03:43:50;99297.86;;;18.87;86.3
64025;BME280;50266;57.446;26.936;2022-07-23T03:44:50;99299.05;;;18.91;86.01
64025;BME280;50266;57.446;26.936;2022-07-23T03:45:50;99297.52;;;18.86;87.17
64025;BME280;50266;57.446;26.936;2022-07-23T03:46:50;99299.36;;;18.85;87.56
64025;BME280;50266;57.446;26.936;2022-07-23T03:47:50;99296.45;;;18.9;87.09
64025;BME280;50266;57.446;26.936;2022-07-23T03:48:50;99290.97;;;18.95;86.55
64025;BME280;50266;57.446;26.936;2022-07-23T03:49:53;99289.09;;;19.04;85.79
64025;BME280;50266;57.446;26.936;2022-07-23T03:50:53;99287.78;;;19.16;85.24
64025;BME280;50266;57.446;26.936;2022-07-23T03:51:53;99286.85;;;19.09;85.57
64025;BME280;50266;57.446;26.936;2022-07-23T03:52:54;99291.86;;;19.23;84.54
64025;BME280;50266;57.446;26.936;2022-07-23T03:53:53;99289.64;;;19.11;85.54
64025;BME280;50266;57.446;26.936;2022-07-23T03:54:53;99287.78;;;19.09;85.58
64025;BME280;50266;57.446;26.936;2022-07-23T03:55:53;99288.72;;;19.17;85.47
64025;BME280;50266;57.446;26.936;2022-07-23T03:56:53;99294.03;;;19.18;85.06
64025;BME280;50266;57.446;26.936;2022-07-23T03:57:54;99295.89;;;19.2;84.69
64025;BME280;50266;57.446;26.936;2022-07-23T03:58:54;99290.5;;;19.21;84.74
64025;BME280;50266;57.446;26.936;2022-07-23T03:59:54;99293.23;;;19.25;84.37
64025;BME280;50266;57.446;26.936;2022-07-23T04:00:54;99286.11;;;19.18;84.96
64025;BME280;50266;57.446;26.936;2022-07-23T04:01:54;99287.12;;;19.17;85.14
64025;BME280;50266;57.446;26.936;2022-07-23T04:02:54;99283.88;;;19.25;84.8
64025;BME280;50266;57.446;26.936;2022-07-23T04:03:54;99280.37;;;19.31;84.84
64025;BME280;50266;57.446;26.936;2022-07-23T04:04:54;99282.3;;;19.28;85.21
64025;BME280;50266;57.446;26.936;2022-07-23T04:05:54;99282.72;;;19.29;84.82
64025;BME280;50266;57.446;26.936;2022-07-23T04:06:54;99281.61;;;19.33;84.44
64025;BME280;50266;57.446;26.936;2022-07-23T04:07:54;99286.35;;;19.38;84.17
64025;BME280;50266;57.446;26.936;2022-07-23T04:08:54;99285.77;;;19.33;84.48
64025;BME280;50266;57.446;26.936;2022-07-23T04:09:54;99284.48;;;19.35;84.35
64025;BME280;50266;57.446;26.936;2022-07-23T04:10:54;99281.2;;;19.37;84.44
64025;BME280;50266;57.446;26.936;2022-07-23T04:11:54;99282.91;;;19.4;84.37
64025;BME280;50266;57.446;26.936;2022-07-23T04:12:54;99279.55;;;19.44;84.15
64025;BME280;50266;57.446;26.936;2022-07-23T04:13:54;99279.58;;;19.49;83.87
64025;BME280;50266;57.446;26.936;2022-07-23T04:14:55;99280.75;;;19.48;83.61
64025;BME280;50266;57.446;26.936;2022-07-23T04:15:54;99288.31;;;19.44;84.25
64025;BME280;50266;57.446;26.936;2022-07-23T04:16:54;99289.55;;;19.38;85.57
64025;BME280;50266;57.446;26.936;2022-07-23T04:17:54;99287.36;;;19.37;85.43
64025;BME280;50266;57.446;26.936;2022-07-23T04:18:54;99289.08;;;19.45;84.76
64025;BME280;50266;57.446;26.936;2022-07-23T04:19:54;99291.95;;;19.46;84.71
64025;BME280;50266;57.446;26.936;2022-07-23T04:20:54;99288.84;;;19.49;84.65
64025;BME280;50266;57.446;26.936;2022-07-23T04:21:54;99285.75;;;19.54;84.51
64025;BME280;50266;57.446;26.936;2022-07-23T04:22:54;99285.41;;;19.54;84.71
64025;BME280;50266;57.446;26.936;2022-07-23T04:23:54;99290.23;;;19.5;84.95
64025;BME280;50266;57.446;26.936;2022-07-23T04:24:54;99287.12;;;19.52;84.69
64025;BME280;50266;57.446;26.936;2022-07-23T04:25:54;99286.19;;;19.6;84.35
64025;BME280;50266;57.446;26.936;2022-07-23T04:26:54;99285.79;;;19.65;83.78
64025;BME280;50266;57.446;26.936;2022-07-23T04:27:54;99284.25;;;19.6;84.56
64025;BME280;50266;57.446;26.936;2022-07-23T04:28:54;99282.68;;;19.68;83.98
64025;BME280;50266;57.446;26.936;2022-07-23T04:29:54;99281.73;;;19.63;84.48
64025;BME280;50266;57.446;26.936;2022-07-23T04:30:56;99278.8;;;19.66;84.59
64025;BME280;50266;57.446;26.936;2022-07-23T04:31:54;99277.7;;;19.75;83.69
64025;BME280;50266;57.446;26.936;2022-07-23T04:32:54;99273.73;;;19.75;83.93
64025;BME280;50266;57.446;26.936;2022-07-23T04:33:54;99278.06;;;19.83;83.79
64025;BME280;50266;57.446;26.936;2022-07-23T04:34:54;99276.45;;;19.79;84.07
64025;BME280;50266;57.446;26.936;2022-07-23T04:35:54;99277.12;;;19.78;83.85
64025;BME280;50266;57.446;26.936;2022-07-23T04:36:54;99275.94;;;19.79;83.68
64025;BME280;50266;57.446;26.936;2022-07-23T04:37:54;99274.93;;;19.8;83.87
64025;BME280;50266;57.446;26.936;2022-07-23T04:38:54;99278.98;;;19.81;83.89
64025;BME280;50266;57.446;26.936;2022-07-23T04:39:54;99274.69;;;19.83;83.68
64025;BME280;50266;57.446;26.936;2022-07-23T04:40:54;99276.62;;;19.98;83.1
64025;BME280;50266;57.446;26.936;2022-07-23T04:41:54;99274.27;;;19.98;82.92
64025;BME280;50266;57.446;26.936;2022-07-23T04:42:54;99275.55;;;20.04;82.59
64025;BME280;50266;57.446;26.936;2022-07-23T04:43:54;99271.67;;;20.05;82.56
64025;BME280;50266;57.446;26.936;2022-07-23T04:44:54;99275.72;;;20.1;82.61
64025;BME280;50266;57.446;26.936;2022-07-23T04:45:54;99274.63;;;20.13;82.59
64025;BME280;50266;57.446;26.936;2022-07-23T04:46:54;99275.14;;;20.15;82.98
64025;BME280;50266;57.446;26.936;2022-07-23T04:47:54;99272.0;;;20.2;82.72
64025;BME280;50266;57.446;26.936;2022-07-23T04:48:54;99267.87;;;20.26;82.15
64025;BME280;50266;57.446;26.936;2022-07-23T04:49:54;99265.93;;;20.27;82.63
64025;BME280;50266;57.446;26.936;2022-07-23T04:50:54;99270.57;;;20.34;81.29
64025;BME280;50266;57.446;26.936;2022-07-23T04:51:54;99266.78;;;20.43;81.05
64025;BME280;50266;57.446;26.936;2022-07-23T04:52:55;99266.95;;;20.43;81.85
64025;BME280;50266;57.446;26.936;2022-07-23T04:53:55;99265.59;;;20.4;81.43
64025;BME280;50266;57.446;26.936;2022-07-23T04:54:54;99263.83;;;20.34;80.84
64025;BME280;50266;57.446;26.936;2022-07-23T04:55:55;99264.5;;;20.44;80.62
64025;BME280;50266;57.446;26.936;2022-07-23T04:56:54;99257.84;;;20.39;81.3
64025;BME280;50266;57.446;26.936;2022-07-23T04:57:54;99259.86;;;20.35;80.61
64025;BME280;50266;57.446;26.936;2022-07-23T04:58:55;99262.47;;;20.32;81.84
64025;BME280;50266;57.446;26.936;2022-07-23T04:59:55;99260.62;;;20.33;81.17
64025;BME280;50266;57.446;26.936;2022-07-23T05:00:55;99259.61;;;20.38;80.45
64025;BME280;50266;57.446;26.936;2022-07-23T05:01:55;99260.28;;;20.35;80.77
64025;BME280;50266;57.446;26.936;2022-07-23T05:02:55;99258.84;;;20.35;81.27
64025;BME280;50266;57.446;26.936;2022-07-23T05:03:55;99259.19;;;20.4;81.18
64025;BME280;50266;57.446;26.936;2022-07-23T05:04:55;99257.58;;;20.5;80.95
64025;BME280;50266;57.446;26.936;2022-07-23T05:05:55;99255.89;;;20.54;81.55
64025;BME280;50266;57.446;26.936;2022-07-23T05:06:55;99250.83;;;20.56;81.79
64025;BME280;50266;57.446;26.936;2022-07-23T05:07:55;99250.38;;;20.59;81.61
64025;BME280;50266;57.446;26.936;2022-07-23T05:08:55;99249.27;;;20.62;81.31
64025;BME280;50266;57.446;26.936;2022-07-23T05:09:55;99250.41;;;20.54;81.38
64025;BME280;50266;57.446;26.936;2022-07-23T05:10:55;99242.94;;;20.66;80.25
64025;BME280;50266;57.446;26.936;2022-07-23T05:11:55;99245.55;;;20.73;80.55
64025;BME280;50266;57.446;26.936;2022-07-23T05:12:55;99242.59;;;20.74;80.34
64025;BME280;50266;57.446;26.936;2022-07-23T05:13:55;99245.63;;;20.71;80.97
64025;BME280;50266;57.446;26.936;2022-07-23T05:14:55;99243.44;;;20.72;80.59